Time;durP1;ratioP1;P1;durP2;ratioP2;P2;SDS_P1;SDS_P2;PMS_P1;PMS_P2;Temp;Humidity;BMP_temperature;BMP_pressure;BME280_temperature;BME280_humidity;BME280_pressure;Samples;Min_cycle;Max_cycle;Signal;HPM_P1;HPM_P2
2023/04/29 00:00:07;;;;;;;0.20;0.20;;;;;;;19.14;44.84;100940.66;5116714;27;20073;-46
2023/04/29 00:02:33;;;;;;;0.30;0.30;;;;;;;19.14;45.00;100943.41;5117093;27;20516;-44
2023/04/29 00:04:59;;;;;;;0.20;0.20;;;;;;;19.15;44.79;100950.56;5117190;27;20039;-46
2023/04/29 00:07:25;;;;;;;0.20;0.20;;;;;;;19.14;44.80;100949.75;5117420;27;20039;-45
2023/04/29 00:09:51;;;;;;;0.20;0.20;;;;;;;19.14;44.93;100947.00;5116140;28;20073;-47
2023/04/29 00:12:17;;;;;;;0.20;0.20;;;;;;;19.13;44.81;100947.25;5117042;27;20058;-45
2023/04/29 00:14:43;;;;;;;0.20;0.20;;;;;;;19.14;45.01;100954.44;5116766;27;20043;-43
2023/04/29 00:17:09;;;;;;;0.20;0.20;;;;;;;19.13;45.04;100959.16;5117301;27;20043;-47
2023/04/29 00:19:34;;;;;;;0.22;0.22;;;;;;;19.13;45.10;100955.53;5116725;27;20051;-46
2023/04/29 00:22:00;;;;;;;0.20;0.20;;;;;;;19.14;45.06;100957.22;5117105;28;20055;-45
2023/04/29 00:24:26;;;;;;;0.20;0.20;;;;;;;19.13;44.95;100961.91;5117241;28;20480;-43
2023/04/29 00:26:52;;;;;;;0.20;0.20;;;;;;;19.13;44.86;100964.66;5115742;28;20078;-44
2023/04/29 00:29:18;;;;;;;0.22;0.22;;;;;;;19.13;44.88;100967.44;5116710;27;20043;-48
2023/04/29 00:31:44;;;;;;;0.22;0.22;;;;;;;19.13;44.88;100972.09;5115176;27;20538;-44
2023/04/29 00:34:09;;;;;;;0.20;0.20;;;;;;;19.14;45.06;100968.25;5116709;28;20047;-47
2023/04/29 00:36:35;;;;;;;0.30;0.30;;;;;;;19.13;45.17;100967.44;5116779;28;20107;-44
2023/04/29 00:39:01;;;;;;;0.20;0.20;;;;;;;19.12;44.83;100970.44;5116665;27;20384;-44
2023/04/29 00:41:27;;;;;;;0.30;0.30;;;;;;;19.13;45.12;100975.72;5116046;27;20510;-45
2023/04/29 00:43:53;;;;;;;0.20;0.20;;;;;;;19.13;44.71;100986.75;5116380;28;20274;-46
2023/04/29 00:46:18;;;;;;;0.30;0.30;;;;;;;19.14;44.96;100990.34;5116400;28;20039;-45
2023/04/29 00:48:44;;;;;;;0.30;0.30;;;;;;;19.12;45.01;100974.03;5116597;27;20039;-44
2023/04/29 00:51:10;;;;;;;0.20;0.20;;;;;;;19.12;44.83;100982.31;5116507;28;20047;-45
2023/04/29 00:53:36;;;;;;;0.20;0.20;;;;;;;19.13;45.04;100991.41;5116668;27;20043;-45
2023/04/29 00:56:02;;;;;;;0.20;0.20;;;;;;;19.13;45.03;100991.41;5116736;27;20215;-48
2023/04/29 00:58:32;;;;;;;0.20;0.20;;;;;;;19.13;44.76;100999.69;5117080;27;20300;-46
2023/04/29 01:01:00;;;;;;;0.20;0.20;;;;;;;19.12;45.10;100989.78;5115108;28;20419;-46
2023/04/29 01:03:27;;;;;;;0.30;0.30;;;;;;;19.12;44.99;100998.88;5116743;27;20039;-45
2023/04/29 01:06:23;;;;;;;0.20;0.20;;;;;;;19.13;45.06;100996.94;5115081;28;20047;-45
2023/04/29 01:09:09;;;;;;;0.30;0.30;;;;;;;19.12;45.10;101001.63;5114810;28;20046;-45
2023/04/29 01:11:45;;;;;;;0.20;0.20;;;;;;;19.12;44.80;101001.63;5115306;27;20081;-43
2023/04/29 01:14:11;;;;;;;0.20;0.20;;;;;;;19.12;45.04;101007.16;5115899;28;20043;-46
2023/04/29 01:16:43;;;;;;;0.20;0.20;;;;;;;19.12;45.10;101006.34;5115800;28;20514;-45
2023/04/29 01:19:49;;;;;;;0.30;0.30;;;;;;;19.12;44.94;101009.91;5097180;28;20043;-44
2023/04/29 01:22:16;;;;;;;0.20;0.20;;;;;;;19.12;44.83;101012.69;5082943;28;20100;-45
2023/04/29 01:24:42;;;;;;;0.20;0.20;;;;;;;19.12;44.92;101015.44;5095331;28;20039;-44
2023/04/29 01:27:17;;;;;;;0.20;0.20;;;;;;;19.12;45.00;101011.84;5095473;28;20054;-45
2023/04/29 01:29:52;;;;;;;0.20;0.20;;;;;;;19.12;44.93;101017.38;5099405;28;20644;-47
2023/04/29 01:32:32;;;;;;;0.20;0.20;;;;;;;19.12;44.82;101017.38;5113680;27;20040;-46
2023/04/29 01:35:10;;;;;;;0.20;0.20;;;;;;;19.12;45.15;101022.91;5115754;27;20055;-46
2023/04/29 01:37:48;;;;;;;0.20;0.20;;;;;;;19.11;44.96;101016.56;5115592;27;20074;-43
2023/04/29 01:40:15;;;;;;;;;;;;;;;19.11;44.98;101022.06;5110670;27;20213;-47
2023/04/29 01:43:00;;;;;;;0.28;0.28;;;;;;;19.10;45.02;101017.66;5126656;27;19949;-46
2023/04/29 01:45:27;;;;;;;0.30;0.30;;;;;;;19.11;45.02;101027.59;5136353;27;20296;-44
2023/04/29 01:47:55;;;;;;;0.30;0.30;;;;;;;19.12;45.04;101025.66;5112401;28;20155;-44
2023/04/29 01:50:21;;;;;;;0.30;0.30;;;;;;;19.12;44.82;101025.66;5107296;28;20162;-44
2023/04/29 01:52:46;;;;;;;0.20;0.20;;;;;;;19.12;44.95;101040.28;5115411;28;20515;-47
2023/04/29 01:55:12;;;;;;;0.20;0.20;;;;;;;19.11;45.12;101035.88;5115353;28;20058;-45
2023/04/29 01:57:38;;;;;;;0.20;0.20;;;;;;;19.11;44.90;101038.63;5115501;28;20437;-48
2023/04/29 02:00:04;;;;;;;0.20;0.20;;;;;;;19.11;45.15;101037.81;5109045;28;20318;-45
2023/04/29 02:02:30;;;;;;;0.20;0.20;;;;;;;19.10;45.11;101037.00;5115839;27;20055;-45
2023/04/29 02:04:55;;;;;;;0.20;0.20;;;;;;;19.11;45.05;101038.63;5112273;28;20047;-44
2023/04/29 02:07:22;;;;;;;0.20;0.20;;;;;;;19.11;44.85;101032.28;5095029;28;20466;-44
2023/04/29 02:09:47;;;;;;;0.20;0.20;;;;;;;19.11;44.90;101046.91;5099448;28;20049;-46
2023/04/29 02:12:13;;;;;;;0.20;0.20;;;;;;;19.12;44.90;101044.97;5115802;28;20102;-47
2023/04/29 02:14:39;;;;;;;0.20;0.20;;;;;;;19.11;44.94;101051.63;5114361;27;20053;-43
2023/04/29 02:17:05;;;;;;;0.30;0.30;;;;;;;19.11;44.79;101054.38;5114840;27;20043;-45
2023/04/29 02:19:30;;;;;;;0.30;0.30;;;;;;;19.10;44.98;101061.81;5114101;28;20047;-46
2023/04/29 02:21:56;;;;;;;0.20;0.20;;;;;;;19.11;45.09;101051.63;5115678;28;20071;-45
2023/04/29 02:24:21;;;;;;;0.20;0.20;;;;;;;19.11;44.83;101063.47;5115280;27;20057;-45
2023/04/29 02:26:47;;;;;;;0.20;0.20;;;;;;;19.10;45.10;101066.53;5115058;28;20043;-47
2023/04/29 02:29:13;;;;;;;0.25;0.25;;;;;;;19.11;45.16;101065.41;5114892;27;20047;-44
2023/04/29 02:31:38;;;;;;;0.20;0.20;;;;;;;19.10;44.88;101070.13;5114860;27;20092;-46
2023/04/29 02:34:04;;;;;;;0.30;0.30;;;;;;;19.12;44.82;101072.59;5115424;28;20039;-46
2023/04/29 02:36:30;;;;;;;0.30;0.30;;;;;;;19.12;44.81;101078.09;5115070;28;20069;-43
2023/04/29 02:38:56;;;;;;;0.20;0.20;;;;;;;19.11;44.82;101076.47;5115363;27;20074;-49
2023/04/29 02:41:22;;;;;;;0.20;0.20;;;;;;;19.11;45.05;101070.94;5115211;27;20051;-47
2023/04/29 02:43:47;;;;;;;0.20;0.20;;;;;;;19.12;44.93;101078.09;5096756;28;20201;-46
2023/04/29 02:46:14;;;;;;;0.20;0.20;;;;;;;19.12;45.04;101083.63;5114674;28;20047;-47
2023/04/29 02:48:40;;;;;;;0.30;0.30;;;;;;;19.10;45.12;101089.44;5113947;28;20944;-45
2023/04/29 02:51:06;;;;;;;0.20;0.20;;;;;;;19.10;44.80;101085.84;5114602;28;20457;-47
2023/04/29 02:53:31;;;;;;;0.30;0.30;;;;;;;19.11;44.85;101090.25;5115513;27;20078;-45
2023/04/29 02:55:57;;;;;;;0.28;0.28;;;;;;;19.10;45.02;101094.97;5118529;28;20380;-47
2023/04/29 02:58:23;;;;;;;0.30;0.30;;;;;;;19.10;45.14;101103.25;5118538;28;20043;-46
2023/04/29 03:00:48;;;;;;;0.20;0.20;;;;;;;19.10;45.16;101106.00;5117957;28;20481;-45
2023/04/29 03:03:14;;;;;;;0.20;0.20;;;;;;;19.10;44.90;101103.25;5116873;28;20055;-46
2023/04/29 03:05:40;;;;;;;0.20;0.20;;;;;;;19.11;44.78;101109.59;5118769;27;20054;-45
2023/04/29 03:08:06;;;;;;;0.20;0.20;;;;;;;19.10;44.79;101106.00;5118496;28;20046;-44
2023/04/29 03:10:32;;;;;;;0.20;0.20;;;;;;;19.10;44.77;101106.00;5117696;27;20085;-44
2023/04/29 03:12:57;;;;;;;0.20;0.20;;;;;;;19.10;44.83;101103.25;5118276;27;20058;-46
2023/04/29 03:15:23;;;;;;;0.20;0.20;;;;;;;19.10;44.88;101103.25;5118152;27;20315;-45
2023/04/29 03:17:49;;;;;;;0.20;0.20;;;;;;;19.10;44.78;101103.25;5117909;27;20051;-44
2023/04/29 03:20:15;;;;;;;0.20;0.20;;;;;;;19.10;44.89;101111.53;5116736;27;20035;-46
2023/04/29 03:22:40;;;;;;;0.25;0.25;;;;;;;19.09;44.97;101109.88;5117636;27;20096;-46
2023/04/29 03:25:06;;;;;;;0.20;0.20;;;;;;;19.10;44.81;101125.31;5118406;28;20070;-45
2023/04/29 03:27:32;;;;;;;0.20;0.20;;;;;;;19.09;45.12;101129.19;5117489;27;20047;-45
2023/04/29 03:29:58;;;;;;;0.30;0.30;;;;;;;19.11;45.14;101128.91;5116985;28;20123;-45
2023/04/29 03:32:23;;;;;;;0.30;0.30;;;;;;;19.09;44.99;101129.19;5117318;27;20053;-45
2023/04/29 03:34:49;;;;;;;0.30;0.30;;;;;;;19.10;45.21;101127.25;5117458;28;20096;-45
2023/04/29 03:37:15;;;;;;;0.30;0.30;;;;;;;19.10;44.91;101130.03;5117542;28;20047;-48
2023/04/29 03:39:41;;;;;;;0.20;0.20;;;;;;;19.10;45.05;101130.03;5116655;27;20315;-46
2023/04/29 03:42:07;;;;;;;0.20;0.20;;;;;;;19.09;45.07;101126.44;5134324;27;20076;-42
2023/04/29 03:44:33;;;;;;;0.20;0.20;;;;;;;19.09;44.89;101129.19;5124063;27;20043;-45
2023/04/29 03:46:58;;;;;;;0.20;0.20;;;;;;;19.10;44.77;101132.78;5117433;27;20046;-44
2023/04/29 03:49:24;;;;;;;0.20;0.20;;;;;;;19.09;44.98;101133.88;5116338;27;20059;-45
2023/04/29 03:51:50;;;;;;;0.20;0.20;;;;;;;19.09;45.08;101131.13;5116101;27;20559;-45
2023/04/29 03:54:16;;;;;;;0.20;0.20;;;;;;;19.10;45.08;101133.59;5116832;28;20472;-45
2023/04/29 03:56:42;;;;;;;0.20;0.20;;;;;;;19.09;44.93;101137.47;5099048;28;20055;-43
2023/04/29 03:59:08;;;;;;;0.20;0.20;;;;;;;19.09;45.09;101137.47;5116773;28;20054;-47
2023/04/29 04:01:33;;;;;;;0.22;0.22;;;;;;;19.10;44.96;101143.81;5116980;28;20047;-47
2023/04/29 04:03:59;;;;;;;0.20;0.20;;;;;;;19.10;45.14;101141.88;5116765;27;20047;-45
2023/04/29 04:06:25;;;;;;;0.20;0.20;;;;;;;19.09;45.08;101143.00;5116424;28;20039;-46
2023/04/29 04:08:51;;;;;;;0.20;0.20;;;;;;;19.09;44.79;101153.22;5117801;28;20486;-44
2023/04/29 04:11:16;;;;;;;0.30;0.30;;;;;;;19.09;44.95;101153.22;5116987;28;20043;-46
2023/04/29 04:13:42;;;;;;;0.22;0.22;;;;;;;19.10;44.84;101154.88;5116909;28;20055;-44
2023/04/29 04:16:09;;;;;;;0.20;0.20;;;;;;;19.09;44.90;101154.03;5117487;28;20942;-47
2023/04/29 04:18:36;;;;;;;0.20;0.20;;;;;;;19.09;44.82;101159.56;5099190;28;20115;-44
2023/04/29 04:21:09;;;;;;;0.20;0.20;;;;;;;19.09;44.89;101159.56;5116576;28;20075;-45
2023/04/29 04:23:35;;;;;;;0.20;0.20;;;;;;;19.09;44.97;101155.97;5116928;27;20061;-49
2023/04/29 04:26:01;;;;;;;0.25;0.25;;;;;;;19.09;44.87;101153.22;5117193;28;20458;-44
2023/04/29 04:28:26;;;;;;;0.30;0.30;;;;;;;19.09;44.79;101164.25;5115997;28;20093;-47
2023/04/29 04:30:52;;;;;;;0.20;0.20;;;;;;;19.09;44.84;101167.84;5116510;28;20054;-44
2023/04/29 04:33:18;;;;;;;0.20;0.20;;;;;;;19.09;44.90;101165.09;5117008;27;20376;-45
2023/04/29 04:35:43;;;;;;;0.20;0.20;;;;;;;19.09;45.12;101169.78;5116868;28;20058;-47
2023/04/29 04:38:10;;;;;;;0.20;0.20;;;;;;;19.08;45.06;101171.69;5117199;28;20095;-44
2023/04/29 04:40:36;;;;;;;0.30;0.30;;;;;;;19.09;45.06;101178.06;5115390;27;20087;-46
2023/04/29 04:43:02;;;;;;;0.20;0.20;;;;;;;19.08;45.14;101179.13;5114948;28;20078;-46
2023/04/29 04:45:29;;;;;;;0.20;0.20;;;;;;;19.08;45.02;101182.72;5116352;27;20608;-45
2023/04/29 04:47:54;;;;;;;0.20;0.20;;;;;;;19.08;44.96;101187.41;5098293;28;20458;-49
2023/04/29 04:50:20;;;;;;;0.20;0.20;;;;;;;19.09;44.90;101186.34;5115646;28;20047;-43
2023/04/29 04:52:46;;;;;;;0.30;0.30;;;;;;;19.09;44.84;101187.16;5115557;27;20039;-43
2023/04/29 04:55:12;;;;;;;0.20;0.20;;;;;;;19.09;44.90;101195.44;5116464;28;20667;-47
2023/04/29 04:57:40;;;;;;;0.20;0.20;;;;;;;19.09;44.93;101200.13;5116300;28;20480;-48
2023/04/29 05:00:06;;;;;;;0.20;0.20;;;;;;;19.09;45.16;101200.13;5116143;28;20122;-48
2023/04/29 05:02:32;;;;;;;0.20;0.20;;;;;;;19.09;44.88;101197.38;5116309;27;20051;-47
2023/04/29 05:04:58;;;;;;;0.20;0.20;;;;;;;19.09;44.88;101203.72;5115908;28;20047;-45
2023/04/29 05:07:23;;;;;;;0.20;0.20;;;;;;;19.09;45.14;101213.94;5116229;28;20637;-43
2023/04/29 05:09:49;;;;;;;0.20;0.20;;;;;;;19.07;45.01;101211.44;5115954;28;20280;-46
2023/04/29 05:12:15;;;;;;;0.20;0.20;;;;;;;19.09;44.76;101211.19;5115670;28;20043;-45
2023/04/29 05:14:40;;;;;;;0.20;0.20;;;;;;;19.08;45.23;101215.03;5115945;27;20104;-44
2023/04/29 05:17:08;;;;;;;0.30;0.30;;;;;;;19.08;45.06;101220.53;5114404;27;20427;-47
2023/04/29 05:19:34;;;;;;;0.20;0.20;;;;;;;19.08;44.83;101224.13;5114727;27;20461;-43
2023/04/29 05:21:59;;;;;;;0.20;0.20;;;;;;;19.08;44.84;101237.09;5114668;28;20672;-45
2023/04/29 05:24:25;;;;;;;0.20;0.20;;;;;;;19.08;44.98;101231.59;5115775;28;20176;-46
2023/04/29 05:26:52;;;;;;;0.20;0.20;;;;;;;19.08;44.59;101237.09;5115643;27;20099;-44
2023/04/29 05:29:18;;;;;;;0.20;0.20;;;;;;;19.07;45.00;101236.28;5115730;27;20043;-45
2023/04/29 05:31:44;;;;;;;0.20;0.20;;;;;;;19.07;44.85;101236.28;5115344;27;20522;-45
2023/04/29 05:34:10;;;;;;;0.20;0.20;;;;;;;19.08;44.92;101239.88;5115848;28;20043;-45
2023/04/29 05:36:35;;;;;;;0.20;0.20;;;;;;;19.08;45.08;101234.34;5116094;27;20051;-45
2023/04/29 05:39:01;;;;;;;0.30;0.30;;;;;;;19.08;45.19;101237.09;5115728;27;20178;-45
2023/04/29 05:41:27;;;;;;;0.30;0.30;;;;;;;19.08;45.05;101239.88;5116714;27;20505;-43
2023/04/29 05:43:53;;;;;;;0.20;0.20;;;;;;;19.09;44.87;101241.56;5115456;28;20051;-45
2023/04/29 05:46:19;;;;;;;0.20;0.20;;;;;;;19.07;45.10;101241.81;5115818;28;20047;-45
2023/04/29 05:48:45;;;;;;;0.20;0.20;;;;;;;19.07;44.74;101244.56;5115030;27;20506;-45
2023/04/29 05:51:11;;;;;;;0.30;0.30;;;;;;;19.07;45.03;101252.84;5115508;28;20163;-44
2023/04/29 05:53:38;;;;;;;0.20;0.20;;;;;;;19.08;44.92;101261.94;5111910;28;20091;-44
2023/04/29 05:56:07;;;;;;;0.20;0.20;;;;;;;19.08;44.97;101268.28;5115684;28;20075;-47
2023/04/29 05:58:33;;;;;;;;;;;;;;;19.08;44.80;101268.28;5116006;28;20312;-46
2023/04/29 06:00:59;;;;;;;0.30;0.30;;;;;;;19.05;45.11;101261.41;5115489;28;19930;-44
2023/04/29 06:03:25;;;;;;;0.20;0.20;;;;;;;19.06;44.93;101267.75;5115793;28;20055;-43
2023/04/29 06:05:51;;;;;;;0.20;0.20;;;;;;;19.07;44.85;101266.66;5115651;27;20055;-43
2023/04/29 06:08:18;;;;;;;0.20;0.20;;;;;;;19.07;45.17;101274.09;5115832;27;20043;-47
2023/04/29 06:10:44;;;;;;;0.20;0.20;;;;;;;19.07;44.92;101274.09;5113460;28;20180;-46
2023/04/29 06:13:10;;;;;;;0.30;0.30;;;;;;;19.07;44.83;101279.63;5115566;27;20472;-45
2023/04/29 06:15:36;;;;;;;0.20;0.20;;;;;;;19.07;44.90;101285.16;5115493;27;20054;-45
2023/04/29 06:18:02;;;;;;;0.30;0.30;;;;;;;19.07;44.80;101293.44;5113643;28;20126;-45
2023/04/29 06:20:27;;;;;;;0.20;0.20;;;;;;;19.06;45.12;101303.63;5114479;27;20054;-45
2023/04/29 06:22:53;;;;;;;0.30;0.30;;;;;;;19.07;44.94;101298.94;5113442;28;20055;-48
2023/04/29 06:25:19;;;;;;;0.20;0.20;;;;;;;19.08;44.92;101306.13;5115327;27;20047;-43
2023/04/29 06:27:44;;;;;;;0.20;0.20;;;;;;;19.07;45.15;101305.28;5115044;27;20082;-44
2023/04/29 06:30:10;;;;;;;0.20;0.20;;;;;;;19.07;45.45;101315.50;5114815;27;20099;-47
2023/04/29 06:32:38;;;;;;;0.20;0.20;;;;;;;19.06;44.93;101320.19;5113735;27;20877;-46
2023/04/29 06:35:04;;;;;;;0.20;0.20;;;;;;;19.07;45.10;101312.75;5115194;27;20078;-44
2023/04/29 06:37:30;;;;;;;0.20;0.20;;;;;;;19.06;45.15;101317.44;5115338;27;20043;-44
2023/04/29 06:39:55;;;;;;;0.20;0.20;;;;;;;19.07;44.83;101319.09;5105119;27;20058;-44
2023/04/29 06:42:21;;;;;;;0.20;0.20;;;;;;;19.06;45.09;101320.19;5114959;28;20051;-46
2023/04/29 06:44:47;;;;;;;0.22;0.22;;;;;;;19.06;44.88;101334.00;5114803;27;20557;-43
2023/04/29 06:47:13;;;;;;;0.30;0.30;;;;;;;19.06;45.03;101328.47;5114934;28;20053;-44
2023/04/29 06:49:39;;;;;;;0.30;0.30;;;;;;;19.06;44.83;101331.25;5113932;27;20555;-46
2023/04/29 06:52:05;;;;;;;0.20;0.20;;;;;;;19.07;45.16;101330.13;5114605;28;20051;-45
2023/04/29 06:54:31;;;;;;;0.20;0.20;;;;;;;19.05;45.11;101335.94;5114764;28;20415;-45
2023/04/29 06:56:57;;;;;;;0.20;0.20;;;;;;;19.06;44.84;101342.28;5113951;28;20043;-46
2023/04/29 06:59:22;;;;;;;0.20;0.20;;;;;;;19.07;44.89;101346.69;5114149;27;20047;-46
2023/04/29 07:01:48;;;;;;;0.30;0.30;;;;;;;19.06;44.80;101347.81;5114583;28;20411;-45
2023/04/29 07:04:14;;;;;;;0.30;0.30;;;;;;;19.08;44.84;101350.28;5114767;28;20290;-45
2023/04/29 07:06:40;;;;;;;0.22;0.22;;;;;;;19.05;44.81;101349.75;5114340;27;20082;-45
2023/04/29 07:09:06;;;;;;;0.20;0.20;;;;;;;19.05;44.90;101351.69;5114418;28;20551;-43
2023/04/29 07:11:31;;;;;;;0.30;0.30;;;;;;;19.06;44.99;101356.09;5113989;27;20498;-46
2023/04/29 07:13:57;;;;;;;0.20;0.20;;;;;;;19.06;44.85;101358.84;5114081;27;20082;-45
2023/04/29 07:16:25;;;;;;;0.20;0.20;;;;;;;19.05;44.93;101362.72;5114546;28;20061;-46
2023/04/29 07:18:51;;;;;;;0.20;0.20;;;;;;;19.05;44.93;101369.06;5114056;27;20091;-45
2023/04/29 07:21:16;;;;;;;0.20;0.20;;;;;;;19.05;44.82;101368.25;5114002;27;20047;-44
2023/04/29 07:23:42;;;;;;;0.20;0.20;;;;;;;19.07;44.98;101381.75;5113664;28;20057;-47
2023/04/29 07:26:12;;;;;;;0.30;0.30;;;;;;;19.07;44.85;101376.25;5096112;28;20047;-46
2023/04/29 07:28:38;;;;;;;0.20;0.20;;;;;;;19.06;45.11;101386.44;5095595;28;20082;-46
2023/04/29 07:31:05;;;;;;;0.30;0.30;;;;;;;19.06;45.23;101383.69;5113447;27;20043;-43
2023/04/29 07:33:30;;;;;;;0.20;0.20;;;;;;;19.06;45.01;101391.97;5113973;27;20054;-43
2023/04/29 07:35:56;;;;;;;0.20;0.20;;;;;;;19.05;45.16;101393.91;5114439;27;20047;-45
2023/04/29 07:38:22;;;;;;;0.20;0.20;;;;;;;19.05;44.99;101385.63;5105344;27;20051;-46
2023/04/29 07:40:47;;;;;;;0.30;0.30;;;;;;;19.05;44.89;101393.91;5107510;28;20443;-45
2023/04/29 07:43:13;;;;;;;0.20;0.20;;;;;;;19.05;44.86;101399.44;5116983;28;20054;-45
2023/04/29 07:45:39;;;;;;;0.30;0.30;;;;;;;19.07;44.83;101401.09;5118028;28;20173;-47
2023/04/29 07:48:05;;;;;;;0.20;0.20;;;;;;;19.05;44.92;101404.13;5117545;28;20054;-46
2023/04/29 07:50:33;;;;;;;0.30;0.30;;;;;;;19.05;44.98;101402.19;5116531;28;20194;-46
2023/04/29 07:53:00;;;;;;;;;;;;;;;19.05;44.78;101406.88;5095015;28;20082;-43
2023/04/29 07:55:28;;;;;;;0.20;0.20;;;;;;;19.04;45.28;101407.97;5097041;28;19966;-45
2023/04/29 07:57:55;;;;;;;0.20;0.20;;;;;;;19.05;45.07;101406.88;5110616;28;20043;-45
2023/04/29 08:00:21;;;;;;;0.20;0.20;;;;;;;19.04;45.12;101406.06;5115938;27;20895;-47
2023/04/29 08:02:51;;;;;;;0.30;0.30;;;;;;;19.05;45.11;101415.16;5115563;28;20054;-45
2023/04/29 08:05:18;;;;;;;0.30;0.30;;;;;;;19.05;44.83;101417.94;5115156;28;20142;-45
2023/04/29 08:07:44;;;;;;;0.30;0.30;;;;;;;19.04;44.85;101417.09;5117115;27;20051;-47
2023/04/29 08:10:09;;;;;;;0.22;0.22;;;;;;;19.05;44.78;101412.41;5116649;28;20151;-45
2023/04/29 08:12:35;;;;;;;0.20;0.20;;;;;;;19.05;44.89;101415.16;5116550;27;20054;-45
2023/04/29 08:15:01;;;;;;;0.20;0.20;;;;;;;19.04;44.90;101425.38;5116640;28;20559;-46
2023/04/29 08:17:26;;;;;;;0.30;0.30;;;;;;;19.04;44.84;101419.00;5117236;27;20349;-45
2023/04/29 08:19:52;;;;;;;0.30;0.30;;;;;;;19.04;45.10;101428.13;5116356;28;20080;-46
2023/04/29 08:22:18;;;;;;;0.20;0.20;;;;;;;19.04;44.82;101430.91;5116867;28;20055;-44
2023/04/29 08:24:44;;;;;;;0.30;0.30;;;;;;;19.05;44.92;101428.97;5112875;28;20495;-44
2023/04/29 08:27:10;;;;;;;0.20;0.20;;;;;;;19.03;44.92;101434.75;5116935;27;20051;-46
2023/04/29 08:29:36;;;;;;;0.20;0.20;;;;;;;19.05;44.85;101434.50;5116615;28;20140;-44
2023/04/29 08:32:02;;;;;;;0.20;0.20;;;;;;;19.04;45.04;101438.31;5116361;27;20043;-43
2023/04/29 08:34:28;;;;;;;0.20;0.20;;;;;;;19.04;44.92;101436.41;5116429;27;20074;-45
2023/04/29 08:36:53;;;;;;;0.20;0.20;;;;;;;19.04;44.90;101436.41;5114985;28;20134;-50
2023/04/29 08:39:19;;;;;;;0.20;0.20;;;;;;;19.04;44.91;101441.94;5116102;27;20047;-47
2023/04/29 08:41:49;;;;;;;0.20;0.20;;;;;;;19.04;45.07;101447.47;5116452;28;20790;-46
2023/04/29 08:44:16;;;;;;;0.28;0.28;;;;;;;19.04;44.96;101444.69;5124330;27;20423;-47
2023/04/29 08:46:43;;;;;;;0.20;0.20;;;;;;;19.04;45.07;101444.69;5117912;27;20710;-44
2023/04/29 08:49:09;;;;;;;0.20;0.20;;;;;;;19.04;44.79;101455.75;5118492;27;20063;-44
2023/04/29 08:51:35;;;;;;;0.20;0.20;;;;;;;19.04;44.83;101452.13;5097448;28;20043;-44
2023/04/29 08:54:00;;;;;;;0.20;0.20;;;;;;;19.05;44.86;101462.09;5115502;28;20339;-44
2023/04/29 08:56:27;;;;;;;0.20;0.20;;;;;;;19.05;44.68;101462.09;5116128;28;20058;-45
2023/04/29 08:58:54;;;;;;;0.20;0.20;;;;;;;19.04;44.85;101461.25;5115878;28;20054;-45
2023/04/29 09:01:20;;;;;;;0.55;0.43;;;;;;;19.05;45.07;101467.63;5115845;27;20047;-43
2023/04/29 09:03:55;;;;;;;0.20;0.20;;;;;;;19.04;45.05;101472.31;5114606;28;20054;-43
2023/04/29 09:06:21;;;;;;;0.28;0.28;;;;;;;19.04;45.12;101475.06;5114968;28;20066;-46
2023/04/29 09:08:47;;;;;;;0.30;0.30;;;;;;;19.04;44.97;101474.22;5116314;28;20043;-47
2023/04/29 09:11:13;;;;;;;0.30;0.30;;;;;;;19.04;45.16;101479.72;5114394;28;20469;-44
2023/04/29 09:13:39;;;;;;;0.30;0.30;;;;;;;19.03;44.96;101481.66;5114240;28;20327;-44
2023/04/29 09:16:10;;;;;;;0.20;0.20;;;;;;;19.05;44.93;101481.41;5115948;27;20039;-44
2023/04/29 09:18:47;;;;;;;0.30;0.30;;;;;;;19.04;44.83;101482.50;5115875;27;20499;-44
2023/04/29 09:21:19;;;;;;;0.30;0.30;;;;;;;19.04;44.90;101482.50;5116225;27;20039;-46
2023/04/29 09:23:50;;;;;;;0.20;0.20;;;;;;;19.04;45.11;101490.78;5114528;28;20078;-46
2023/04/29 09:26:16;;;;;;;0.20;0.20;;;;;;;19.04;44.92;101485.25;5115934;27;20044;-44
2023/04/29 09:28:43;;;;;;;0.20;0.20;;;;;;;19.03;45.09;101495.47;5114655;28;20051;-45
2023/04/29 09:31:10;;;;;;;0.30;0.30;;;;;;;19.04;44.79;101491.63;5101620;28;20075;-45
2023/04/29 09:33:53;;;;;;;0.30;0.30;;;;;;;19.03;44.77;101492.72;5097372;28;20047;-46
2023/04/29 09:39:15;;;;;;;0.20;0.20;;;;;;;19.04;45.01;101499.06;5192499;27;20119;-45
2023/04/29 09:41:57;;;;;;;0.20;0.20;;;;;;;19.03;45.16;101497.41;5130846;27;20096;-46
2023/04/29 09:44:27;;;;;;;0.30;0.30;;;;;;;19.03;45.11;101500.16;5119909;27;20081;-47
2023/04/29 09:49:36;;;;;;;0.30;0.30;;;;;;;19.03;44.93;101506.50;5173821;27;20123;-43
2023/04/29 09:52:04;;;;;;;0.20;0.20;;;;;;;19.04;45.02;101510.09;5132468;27;20130;-44
2023/04/29 09:54:32;;;;;;;0.20;0.20;;;;;;;19.03;45.08;101512.03;5102066;27;20047;-45
2023/04/29 09:56:59;;;;;;;0.20;0.20;;;;;;;19.04;45.09;101513.72;5132300;27;20047;-43
2023/04/29 09:59:25;;;;;;;0.20;0.20;;;;;;;19.04;44.88;101515.63;5115420;27;20047;-46
2023/04/29 10:01:54;;;;;;;0.28;0.28;;;;;;;19.04;44.93;101523.91;5137790;27;20110;-46
2023/04/29 10:04:21;;;;;;;0.30;0.30;;;;;;;19.03;45.03;101523.06;5134369;27;20054;-43
2023/04/29 10:06:49;;;;;;;0.20;0.20;;;;;;;19.02;44.81;101515.91;5153234;27;20538;-46
2023/04/29 10:09:15;;;;;;;0.30;0.30;;;;;;;19.04;44.91;101524.75;5134052;27;20446;-43
2023/04/29 10:11:42;;;;;;;0.30;0.30;;;;;;;19.03;44.90;101528.59;5130626;27;20458;-44
2023/04/29 10:14:12;;;;;;;0.30;0.30;;;;;;;19.04;45.22;101537.69;5130608;27;20445;-45
2023/04/29 10:16:53;;;;;;;0.20;0.20;;;;;;;19.03;45.00;101542.41;5130703;27;20070;-44
2023/04/29 10:19:25;;;;;;;0.30;0.30;;;;;;;19.04;45.00;101545.97;5131047;27;20051;-45
2023/04/29 10:21:53;;;;;;;0.30;0.30;;;;;;;19.03;44.95;101542.41;5134247;27;20458;-43
2023/04/29 10:24:21;;;;;;;0.20;0.20;;;;;;;19.03;45.14;101530.53;5134232;27;20038;-45
2023/04/29 10:26:49;;;;;;;0.20;0.20;;;;;;;19.03;45.23;101547.09;5152535;27;20461;-43
2023/04/29 10:29:16;;;;;;;0.20;0.20;;;;;;;19.02;45.30;101543.50;5152105;27;20340;-42
2023/04/29 10:31:43;;;;;;;0.30;0.30;;;;;;;19.02;44.78;101537.97;5146342;27;20039;-44
2023/04/29 10:34:09;;;;;;;0.20;0.20;;;;;;;19.02;45.11;101540.75;5132219;27;20060;-43
2023/04/29 10:36:36;;;;;;;0.20;0.20;;;;;;;19.03;44.78;101544.31;5123132;27;20054;-44
2023/04/29 10:39:03;;;;;;;0.30;0.30;;;;;;;19.03;44.78;101547.09;5089871;28;20407;-44
2023/04/29 10:41:34;;;;;;;0.20;0.20;;;;;;;19.03;44.78;101547.09;5129021;27;20039;-43
2023/04/29 10:44:00;;;;;;;0.30;0.30;;;;;;;19.03;44.74;101556.19;5112954;27;20075;-43
2023/04/29 10:46:28;;;;;;;0.25;0.25;;;;;;;19.02;45.07;101560.06;5131344;27;20133;-44
2023/04/29 10:48:59;;;;;;;0.20;0.20;;;;;;;19.02;45.10;101556.47;5130945;27;20544;-44
2023/04/29 10:51:42;;;;;;;0.20;0.20;;;;;;;19.02;45.01;101554.53;5109002;28;20054;-44
2023/04/29 10:54:12;;;;;;;0.20;0.20;;;;;;;19.01;44.80;101550.13;5109278;28;20480;-45
2023/04/29 10:56:46;;;;;;;0.22;0.22;;;;;;;19.03;45.10;101558.97;5126268;27;20259;-44
2023/04/29 10:59:13;;;;;;;0.30;0.30;;;;;;;19.03;44.95;101552.59;5091974;28;20688;-44
2023/04/29 11:01:45;;;;;;;0.30;0.30;;;;;;;19.03;45.01;101555.38;5096696;28;20051;-44
2023/04/29 11:04:11;;;;;;;0.30;0.30;;;;;;;19.02;44.67;101560.06;5099322;28;20047;-43
2023/04/29 11:09:19;;;;;;;0.20;0.20;;;;;;;19.03;44.91;101561.72;5174021;27;20124;-43
2023/04/29 11:11:48;;;;;;;0.30;0.30;;;;;;;19.03;44.84;101552.59;5134290;27;20057;-44
2023/04/29 11:14:15;;;;;;;0.30;0.30;;;;;;;19.02;45.10;101553.72;5133741;27;20449;-45
2023/04/29 11:16:57;;;;;;;0.30;0.30;;;;;;;19.03;45.08;101564.47;5134375;27;20073;-45
2023/04/29 11:19:25;;;;;;;0.20;0.20;;;;;;;19.03;45.01;101560.88;5133619;27;20051;-45
2023/04/29 11:22:06;;;;;;;0.20;0.20;;;;;;;19.02;44.79;101556.47;5133938;27;20459;-44
2023/04/29 11:24:34;;;;;;;0.22;0.22;;;;;;;19.02;45.02;101554.53;5133872;27;20407;-44
2023/04/29 11:27:03;;;;;;;0.20;0.20;;;;;;;19.02;45.06;101557.31;5134181;27;20042;-44
2023/04/29 11:29:30;;;;;;;0.30;0.30;;;;;;;19.02;45.01;101560.06;5133330;27;20274;-43
2023/04/29 11:32:00;;;;;;;0.20;0.20;;;;;;;19.02;44.87;101557.31;5143567;27;20072;-43
2023/04/29 11:34:26;;;;;;;0.20;0.20;;;;;;;19.03;45.03;101560.88;5113212;27;20468;-45